• Join FlightAware (Why Join?)
  • Login
  • US Flag 
07:45AM EST


 

Airport Tracker/Info


-or-


 

Live Flight TrackerFlight Track Log ✈ RPA3357 ✈ 23-Jul-2014 ✈ KPHL - KATL

Flight Track Log - Related Links

Times and Time Zones

All times are in EDT time to prevent confusion due to time zone crossing. See the RPA3357 flight status page for this flight to view local times or setup timezone preferences in your user account.

Time Position Orientation Groundspeed Altitude Reporting Facility
EDT Latitude Longitude Course Direction KTS MPH feet Rate Location/Type
11:55AM 39.8667 -75.2833 258° West 144 166 900  Level Philadelphia TRACON
11:55AM 39.8500 -75.3167 237° Southwest 154 177 1,500 1,440 Climbing Philadelphia TRACON
11:56AM 39.8500 -75.3833 270° West 218 251 3,100 1,980 Climbing Philadelphia TRACON
11:59AM 39.8358 -75.5856 265° West 258 297 8,000 2,280 Climbing New York Center
12:00PM 39.8096 -75.9261 258° West  Level FlightAware Approximate
12:00PM 39.8361 -75.6831 270° West 271 312 10,400  Level New York Center
12:01PM 39.8356 -75.7939 270° West 283 326 11,600 1,500 Climbing New York Center
12:02PM 39.8267 -75.9042 264° West 309 356 13,500 1,800 Climbing New York Center
12:03PM 39.8156 -76.0167 263° West 314 361 15,200 1,440 Climbing New York Center
12:04PM 39.7997 -76.1344 260° West 320 368 16,500 1,380 Climbing New York Center
12:05PM 39.7739 -76.2406 252° West 334 384 18,000 1,260 Climbing New York Center
12:07PM 39.6483 -76.4600 233° Southwest 350 403 20,600 1,080 Climbing Washington Center
12:08PM 39.5756 -76.5619 227° Southwest 363 418 21,700 1,200 Climbing Washington Center
12:09PM 39.4925 -76.6808 228° Southwest 367 422 23,100 1,140 Climbing Washington Center
12:10PM 39.4208 -76.7811 227° Southwest 375 432 24,100 960 Climbing Washington Center
12:11PM 39.3506 -76.8847 229° Southwest 379 436 25,200 960 Climbing Washington Center
12:12PM 39.2792 -76.9847 227° Southwest 380 437 26,100 840 Climbing Washington Center
12:13PM 39.2044 -77.0881 227° Southwest 391 450 27,000 840 Climbing Washington Center
12:14PM 39.1294 -77.1922 227° Southwest 395 455 27,900 960 Climbing Washington Center
12:15PM 39.0369 -77.3211 227° Southwest 408 470 29,000 1,080 Climbing Washington Center
12:16PM 38.9589 -77.4269 227° Southwest 406 467 30,100 900 Climbing Washington Center
12:17PM 38.8842 -77.5306 227° Southwest 409 471 30,900 780 Climbing Washington Center
12:18PM 38.7944 -77.6514 226° Southwest 424 488 31,800 780 Climbing Washington Center
12:19PM 38.7133 -77.7658 228° Southwest 425 489 32,600 1,020 Climbing Washington Center
12:20PM 38.6344 -77.8769 228° Southwest 423 487 34,000 660 Climbing Washington Center
12:21PM 38.5667 -77.9917 233° Southwest 409 471 34,000  Level Washington Center
12:22PM 38.4997 -78.1089 234° Southwest 409 471 34,000  Level Washington Center
12:23PM 38.4308 -78.2231 232° Southwest 408 470 34,000  Level Washington Center
12:24PM 38.3494 -78.3614 233° Southwest 407 468 34,000  Level Washington Center
12:25PM 38.2825 -78.4736 233° Southwest 402 463 34,000  Level Washington Center
12:26PM 38.2131 -78.5894 233° Southwest 401 461 34,000  Level Washington Center
12:27PM 38.1461 -78.7000 232° Southwest 399 459 34,000  Level Washington Center
12:29PM 38.0800 -78.8122 233° Southwest 399 459 34,000  Level Washington Center
12:30PM 38.0131 -78.9228 232° Southwest 398 458 34,000  Level Washington Center
12:31PM 37.9328 -79.0556 233° Southwest 398 458 34,000  Level Washington Center
12:32PM 37.8614 -79.1625 230° Southwest 398 458 34,000  Level Washington Center
12:33PM 37.7872 -79.2661 228° Southwest 398 458 34,000  Level Washington Center
12:34PM 37.7125 -79.3694 228° Southwest 398 458 34,000  Level Washington Center
12:35PM 37.6361 -79.4733 227° Southwest 400 460 34,000  Level Washington Center
12:36PM 37.5464 -79.5975 228° Southwest 400 460 34,000  Level Washington Center
12:37PM 37.4700 -79.7019 227° Southwest 404 465 34,000  Level Washington Center
12:38PM 37.4003 -79.7981 228° Southwest 406 467 34,000  Level Washington Center
12:39PM 37.3089 -79.9211 227° Southwest 405 466 34,000  Level Washington Center
12:40PM 37.2336 -80.0247 228° Southwest 404 465 34,000  Level Washington Center
12:41PM 37.1572 -80.1283 227° Southwest 404 465 34,000  Level Washington Center
12:42PM 37.0806 -80.2306 227° Southwest 403 464 34,000  Level Washington Center
12:43PM 37.0050 -80.3336 227° Southwest 402 463 34,000  Level Washington Center
12:44PM 36.9278 -80.4350 226° Southwest 402 463 34,000  Level Washington Center
12:45PM 36.8372 -80.5592 228° Southwest 402 463 34,000  Level Washington Center
12:46PM 36.7592 -80.6597 226° Southwest 403 464 34,000  Level Washington Center
12:47PM 36.6822 -80.7625 227° Southwest 404 465 34,000  Level Washington Center
12:48PM 36.6008 -80.8714 227° Southwest 404 465 34,000  Level Washington Center
12:49PM 36.5272 -80.9761 229° Southwest 404 465 34,000  Level Washington Center
12:50PM 36.4664 -81.0914 237° Southwest 400 460 34,000  Level Washington Center
12:51PM 36.4044 -81.2042 236° Southwest 400 460 34,000  Level Washington Center
12:52PM 36.3292 -81.3456 237° Southwest 407 468 34,000  Level Atlanta Center
12:53PM 36.2519 -81.4486 227° Southwest 407 468 34,000  Level Atlanta Center
12:54PM 36.1728 -81.5439 224° Southwest 407 468 34,000  Level Atlanta Center
12:55PM 36.0911 -81.6439 225° Southwest 412 474 34,000  Level Atlanta Center
12:56PM 36.0056 -81.7467 224° Southwest 417 480 34,000  Level Atlanta Center
12:57PM 35.9197 -81.8464 223° Southwest 427 491 34,000  Level Atlanta Center
12:58PM 35.8297 -81.9436 221° Southwest 432 497 34,000  Level Atlanta Center
12:59PM 35.7439 -82.0456 224° Southwest 437 503 34,000  Level Atlanta Center
01:00PM 35.6556 -82.1397 221° Southwest 437 503 34,000 -420 Level Atlanta Center
01:01PM 35.5694 -82.2361 222° Southwest 432 497 33,200 -1,020 Descending Atlanta Center
01:02PM 35.4853 -82.3325 223° Southwest 427 491 32,000 -1,140 Descending Atlanta Center
01:03PM 35.4136 -82.4256 227° Southwest 422 486 31,000 -720 Descending Atlanta Center
01:04PM 35.3319 -82.5697 235° Southwest 432 497 30,600 -780 Descending Atlanta Center
01:05PM 35.2706 -82.6728 234° Southwest 432 497 29,500 -840 Descending Atlanta Center
01:06PM 35.1881 -82.7706 224° Southwest 432 497 29,000 -480 Descending Atlanta Center
01:07PM 35.0950 -82.8686 221° Southwest 427 491 28,600 -720 Descending Atlanta Center
01:08PM 35.0042 -82.9611 220° Southwest 433 498 27,600 -1,020 Descending Atlanta Center
01:09PM 34.9028 -83.0586 218° Southwest 433 498 26,600 -1,020 Descending Atlanta Center
01:10PM 34.8117 -83.1458 218° Southwest 433 498 25,600 -1,020 Descending Atlanta Center
01:11PM 34.7225 -83.2300 218° Southwest 422 486 24,600 -840 Descending Atlanta Center
01:12PM 34.6375 -83.3142 219° Southwest 411 473 24,000 -1,260 Descending Atlanta Center
01:13PM 34.5503 -83.3983 218° Southwest 406 467 22,100 -2,040 Descending Atlanta Center
01:14PM 34.4672 -83.4819 220° Southwest 406 467 20,000 -2,100 Descending Atlanta Center
01:15PM 34.3839 -83.5606 218° Southwest 396 456 17,900 -2,040 Descending Atlanta Center
01:16PM 34.3028 -83.6389 219° Southwest 386 444 16,000 -1,920 Descending Atlanta Center
01:17PM 34.2258 -83.7147 219° Southwest 376 433 14,100 -1,860 Descending Atlanta Center
01:18PM 34.1489 -83.7878 218° Southwest 371 427 12,300 -1,080 Descending Atlanta Center
01:19PM 34.0800 -83.8506 217° Southwest 345 397 12,000 -480 Descending Atlanta Center
01:20PM 34.0333 -83.9000 221° Southwest 296 341 11,500 -960 Descending Atlanta TRACON
01:21PM 33.9667 -83.9667 220° Southwest 288 331 10,400 -1,020 Descending Atlanta TRACON
01:22PM 33.9000 -83.9667 180° South 298 343 9,500 -720 Descending Atlanta TRACON
01:23PM 33.8167 -83.9667 180° South 289 333 9,100 -300 Descending Atlanta TRACON
01:24PM 33.7333 -83.9667 180° South 293 337 9,000 -600 Descending Atlanta TRACON
01:25PM 33.6500 -84.0000 198° South 257 296 7,900 -1,140 Descending Atlanta TRACON
01:26PM 33.6333 -84.0667 253° West 234 269 6,700 -1,260 Descending Atlanta TRACON
01:27PM 33.6333 -84.1333 270° West 223 257 5,600 -1,260 Descending Atlanta TRACON
01:28PM 33.6333 -84.2000 270° West 215 247 4,400 -1,200 Descending Atlanta TRACON
01:29PM 33.6333 -84.2833 270° West 195 224 3,200 -1,080 Descending Atlanta TRACON
01:30PM 33.6333 -84.3333 270° West 176 203 2,200 -1,020 Descending Atlanta TRACON
01:32PM 33.6333 -84.4167 270° West  Level FlightAware Approximate
01:39PM 33.6367 -84.4279 270° West  Level Estimated
01:40PM 33.6367 -84.4279 91° East  Level Estimated
01:41PM 33.6367 -84.4279 91° East  Level Estimated